Time;durP1;ratioP1;P1;durP2;ratioP2;P2;SDS_P1;SDS_P2;PMS_P1;PMS_P2;Temp;Humidity;BMP_temperature;BMP_pressure;BME280_temperature;BME280_humidity;BME280_pressure;Samples;Min_cycle;Max_cycle;Signal;HPM_P1;HPM_P2
2022/09/26 00:00:43;;;;;;;2.17;1.88;;;19.80;74.90;;;;;;5113663;28;20027;-74
2022/09/26 00:03:09;;;;;;;4.43;2.10;;;19.80;75.90;;;;;;5113107;28;20016;-73
2022/09/26 00:05:35;;;;;;;4.13;1.77;;;19.80;75.80;;;;;;5112352;28;20016;-73
2022/09/26 00:08:01;;;;;;;1.70;1.60;;;19.80;74.80;;;;;;5113445;28;20102;-73
2022/09/26 00:10:26;;;;;;;2.63;1.80;;;19.80;74.80;;;;;;5083902;28;20075;-73
2022/09/26 00:12:54;;;;;;;2.92;1.73;;;19.80;74.90;;;;;;5072767;28;20484;-73
2022/09/26 00:15:19;;;;;;;6.50;2.10;;;19.80;74.80;;;;;;5071239;28;20364;-73
2022/09/26 00:17:45;;;;;;;3.55;2.00;;;19.70;74.80;;;;;;5093850;28;20024;-73
2022/09/26 00:20:10;;;;;;;3.22;1.65;;;19.80;74.80;;;;;;5112016;28;20494;-74
2022/09/26 00:22:36;;;;;;;2.95;1.70;;;19.70;74.80;;;;;;5111961;28;20081;-74
2022/09/26 00:25:02;;;;;;;2.25;1.80;;;19.70;74.80;;;;;;5113027;28;20024;-73
2022/09/26 00:27:28;;;;;;;4.45;1.73;;;19.70;74.80;;;;;;5095180;28;20030;-73
2022/09/26 00:29:53;;;;;;;2.47;1.63;;;19.70;74.70;;;;;;5113116;28;20024;-73
2022/09/26 00:32:19;;;;;;;3.78;1.70;;;19.80;74.80;;;;;;5111471;28;20035;-73
2022/09/26 00:34:45;;;;;;;4.45;1.92;;;19.70;74.70;;;;;;5113229;28;20055;-73
2022/09/26 00:37:10;;;;;;;3.30;1.65;;;19.80;74.80;;;;;;5113006;28;20081;-73
2022/09/26 00:39:36;;;;;;;1.88;1.50;;;19.70;74.70;;;;;;5112956;28;20081;-73
2022/09/26 00:42:02;;;;;;;3.58;1.70;;;19.70;74.70;;;;;;5111460;28;20077;-73
2022/09/26 00:44:37;;;;;;;1.77;1.55;;;19.70;74.70;;;;;;5112828;28;20072;-73
2022/09/26 00:47:03;;;;;;;4.35;1.70;;;19.70;74.70;;;;;;5111381;28;20012;-73
2022/09/26 00:49:36;;;;;;;2.95;1.80;;;19.70;74.70;;;;;;5111397;28;20433;-73
2022/09/26 00:52:06;;;;;;;3.25;1.67;;;19.70;74.80;;;;;;5095739;28;20546;-73
2022/09/26 00:54:33;;;;;;;4.20;1.75;;;19.70;74.70;;;;;;5112837;28;20074;-73
2022/09/26 00:57:02;;;;;;;1.60;1.50;;;19.70;74.70;;;;;;5111628;28;20086;-73
2022/09/26 00:59:49;;;;;;;1.95;1.55;;;19.60;74.70;;;;;;5094797;28;20084;-73
2022/09/26 01:02:15;;;;;;;2.47;1.85;;;19.70;74.70;;;;;;5112531;28;20502;-73
2022/09/26 01:04:41;;;;;;;4.07;1.83;;;19.70;74.70;;;;;;5111548;28;20023;-73
2022/09/26 01:07:09;;;;;;;4.97;1.60;;;19.60;74.70;;;;;;5111443;28;20442;-73
2022/09/26 01:09:35;;;;;;;2.75;1.60;;;19.70;74.80;;;;;;5081012;28;20059;-73
2022/09/26 01:12:01;;;;;;;3.65;2.03;;;19.70;74.80;;;;;;5070918;28;20032;-73
2022/09/26 01:14:27;;;;;;;2.83;1.80;;;19.70;74.70;;;;;;5073034;28;20029;-73
2022/09/26 01:16:52;;;;;;;2.85;1.80;;;19.60;74.80;;;;;;5081564;28;20027;-73
2022/09/26 01:19:45;;;;;;;1.50;1.40;;;19.70;74.80;;;;;;5115449;28;20651;-73
2022/09/26 01:22:14;;;;;;;;;;;19.60;74.70;;;;;;5116978;28;20046;-73
2022/09/26 01:25:04;;;;;;;2.28;1.45;;;19.60;74.70;;;;;;5116718;28;19911;-73
2022/09/26 01:27:56;;;;;;;3.28;1.55;;;19.60;74.80;;;;;;5116401;28;20447;-73
2022/09/26 01:30:25;;;;;;;3.97;1.90;;;19.60;74.80;;;;;;5114923;28;20556;-73
2022/09/26 01:32:53;;;;;;;4.05;1.63;;;19.60;74.80;;;;;;5098905;28;20015;-73
2022/09/26 01:35:40;;;;;;;3.58;1.75;;;19.60;74.90;;;;;;5116250;28;20023;-73
2022/09/26 01:38:43;;;;;;;4.38;2.00;;;19.60;74.80;;;;;;5116394;28;20450;-73
2022/09/26 01:41:42;;;;;;;2.30;1.58;;;19.60;74.80;;;;;;5116158;28;20487;-73
2022/09/26 01:44:14;;;;;;;2.55;1.30;;;19.60;75.90;;;;;;5115071;28;20020;-73
2022/09/26 01:46:52;;;;;;;2.10;1.42;;;19.60;74.90;;;;;;5116312;28;20020;-73
2022/09/26 01:49:35;;;;;;;5.85;1.40;;;19.60;74.80;;;;;;5115738;28;20024;-73
2022/09/26 01:52:36;;;;;;;1.90;1.50;;;19.60;74.80;;;;;;5114932;28;20046;-73
2022/09/26 01:55:09;;;;;;;2.67;1.60;;;19.60;74.90;;;;;;5114890;28;20091;-73
2022/09/26 01:57:40;;;;;;;2.97;1.67;;;19.50;74.90;;;;;;5098140;28;20030;-73
2022/09/26 02:00:07;;;;;;;1.40;1.30;;;19.60;75.00;;;;;;5114856;28;20032;-73
2022/09/26 02:02:35;;;;;;;4.03;1.33;;;19.60;75.00;;;;;;5115670;27;20032;-73
2022/09/26 02:05:06;;;;;;;3.00;1.50;;;19.60;75.00;;;;;;5097883;28;20023;-73
2022/09/26 02:07:43;;;;;;;1.55;1.40;;;19.50;74.90;;;;;;5097866;28;20471;-73
2022/09/26 02:10:16;;;;;;;4.15;1.85;;;19.50;74.90;;;;;;5092465;28;20017;-73
2022/09/26 02:12:41;;;;;;;;;;;19.50;74.90;;;;;;5074156;28;20039;-73
2022/09/26 02:15:13;;;;;;;2.60;1.15;;;19.50;74.90;;;;;;5107629;28;19908;-73
2022/09/26 02:17:41;;;;;;;3.08;1.48;;;19.50;75.00;;;;;;5093322;28;20024;-73
2022/09/26 02:20:24;;;;;;;1.95;1.42;;;19.50;75.00;;;;;;5115744;28;20019;-73
2022/09/26 02:22:50;;;;;;;2.33;1.48;;;19.50;75.10;;;;;;5114467;28;20019;-73
2022/09/26 02:25:15;;;;;;;4.10;1.65;;;19.50;75.00;;;;;;5113041;28;20489;-73
2022/09/26 02:27:41;;;;;;;1.60;1.50;;;19.50;75.00;;;;;;5096935;28;20020;-73
2022/09/26 02:30:07;;;;;;;2.75;1.52;;;19.50;75.00;;;;;;5114369;28;20027;-73
2022/09/26 02:32:33;;;;;;;5.30;1.60;;;19.50;75.10;;;;;;5115049;28;20020;-73
2022/09/26 02:34:59;;;;;;;2.75;1.30;;;19.50;75.20;;;;;;5097467;28;20399;-73
2022/09/26 02:37:27;;;;;;;1.92;1.70;;;19.50;75.10;;;;;;5113973;28;20471;-73
2022/09/26 02:39:53;;;;;;;1.55;1.20;;;19.50;75.10;;;;;;5097378;28;20089;-73
2022/09/26 02:42:37;;;;;;;6.15;2.10;;;19.50;75.10;;;;;;5096661;28;20024;-73
2022/09/26 02:45:20;;;;;;;1.45;1.15;;;19.50;75.00;;;;;;5097052;28;20022;-73
2022/09/26 02:48:01;;;;;;;3.20;1.73;;;19.50;75.00;;;;;;5115140;28;20016;-73
2022/09/26 02:50:39;;;;;;;3.25;1.50;;;19.50;75.00;;;;;;5113556;28;20126;-73
2022/09/26 02:53:31;;;;;;;3.13;1.30;;;19.50;75.10;;;;;;5114922;28;20103;-73
2022/09/26 02:56:13;;;;;;;3.43;1.43;;;19.50;75.10;;;;;;5114922;28;20548;-73
2022/09/26 02:58:39;;;;;;;3.03;1.30;;;19.50;75.10;;;;;;5113665;28;20020;-73
2022/09/26 03:01:26;;;;;;;2.75;1.75;;;19.50;75.10;;;;;;5114522;28;20403;-73
2022/09/26 03:03:58;;;;;;;2.03;1.20;;;19.50;75.00;;;;;;5113818;28;20024;-73
2022/09/26 03:06:28;;;;;;;2.90;1.50;;;19.50;75.00;;;;;;5114587;28;20016;-73
2022/09/26 03:08:53;;;;;;;1.83;1.45;;;19.50;75.00;;;;;;5094608;28;20023;-73
2022/09/26 03:11:20;;;;;;;1.30;1.20;;;19.50;75.00;;;;;;5072419;28;20033;-73
2022/09/26 03:13:46;;;;;;;3.33;1.33;;;19.50;75.00;;;;;;5072701;28;20366;-73
2022/09/26 03:16:12;;;;;;;3.33;1.40;;;19.50;75.00;;;;;;5072949;28;20032;-73
2022/09/26 03:18:49;;;;;;;1.65;1.23;;;19.50;74.90;;;;;;5108714;28;20463;-73
2022/09/26 03:21:15;;;;;;;2.05;1.15;;;19.50;74.90;;;;;;5096595;28;20035;-73
2022/09/26 03:23:41;;;;;;;2.83;1.20;;;19.50;75.00;;;;;;5114344;28;20019;-73
2022/09/26 03:26:09;;;;;;;1.42;1.17;;;19.50;75.00;;;;;;5114289;28;20556;-73
2022/09/26 03:28:35;;;;;;;2.35;1.60;;;19.50;74.90;;;;;;5113021;28;20020;-73
2022/09/26 03:31:00;;;;;;;0.90;0.90;;;19.40;74.90;;;;;;5112961;28;20039;-73
2022/09/26 03:33:26;;;;;;;1.00;0.93;;;19.50;74.90;;;;;;5114019;28;20029;-73
2022/09/26 03:35:52;;;;;;;1.83;1.17;;;19.50;74.90;;;;;;5113877;28;20031;-73
2022/09/26 03:38:17;;;;;;;1.58;1.20;;;19.50;75.00;;;;;;5112658;28;20023;-73
2022/09/26 03:40:44;;;;;;;1.55;1.35;;;19.50;75.00;;;;;;5095579;28;20024;-73
2022/09/26 03:43:09;;;;;;;3.45;1.05;;;19.50;75.00;;;;;;5113774;28;20091;-73
2022/09/26 03:45:35;;;;;;;2.45;1.30;;;19.50;75.00;;;;;;5113684;28;20103;-73
2022/09/26 03:48:01;;;;;;;1.30;1.15;;;19.50;74.90;;;;;;5095820;28;20503;-73
2022/09/26 03:50:27;;;;;;;2.05;1.40;;;19.50;74.90;;;;;;5112316;28;20051;-73
2022/09/26 03:52:53;;;;;;;1.10;1.00;;;19.50;74.90;;;;;;5113836;28;20062;-73
2022/09/26 03:55:18;;;;;;;2.17;1.17;;;19.40;74.80;;;;;;5113434;28;20115;-73
2022/09/26 03:57:44;;;;;;;2.72;1.33;;;19.40;74.90;;;;;;5113584;28;20103;-73
2022/09/26 04:00:10;;;;;;;1.77;1.15;;;19.50;74.90;;;;;;5112559;28;20030;-73
2022/09/26 04:02:36;;;;;;;2.50;1.25;;;19.50;74.90;;;;;;5113281;28;20082;-73
2022/09/26 04:05:02;;;;;;;1.40;0.98;;;19.50;75.00;;;;;;5112394;28;20451;-73
2022/09/26 04:07:27;;;;;;;1.90;1.10;;;19.50;75.00;;;;;;5113293;28;20044;-73
2022/09/26 04:09:53;;;;;;;2.60;1.30;;;19.40;74.90;;;;;;5094315;28;20507;-73
2022/09/26 04:12:19;;;;;;;3.00;1.30;;;19.50;74.90;;;;;;5072734;28;20024;-73
2022/09/26 04:14:45;;;;;;;2.55;1.10;;;19.40;74.80;;;;;;5071590;28;20036;-73
2022/09/26 04:17:10;;;;;;;3.80;1.20;;;19.40;74.90;;;;;;5084222;28;20016;-73
2022/09/26 04:19:36;;;;;;;1.88;1.08;;;19.40;74.80;;;;;;5111966;28;20024;-73
2022/09/26 04:22:02;;;;;;;6.70;1.20;;;19.40;74.80;;;;;;5113338;28;20042;-73
2022/09/26 04:24:28;;;;;;;2.28;1.10;;;19.40;74.80;;;;;;5111746;28;20032;-73
2022/09/26 04:26:54;;;;;;;2.42;1.45;;;19.40;74.80;;;;;;5112112;28;20090;-73
2022/09/26 04:29:19;;;;;;;3.78;1.80;;;19.40;74.80;;;;;;5113186;28;20026;-73
2022/09/26 04:31:45;;;;;;;1.35;1.05;;;19.40;74.80;;;;;;5111724;28;20077;-73
2022/09/26 04:34:11;;;;;;;1.17;1.08;;;19.40;74.90;;;;;;5111966;28;20473;-73
2022/09/26 04:36:36;;;;;;;1.83;1.23;;;19.40;74.80;;;;;;5111504;28;20035;-73
2022/09/26 04:39:02;;;;;;;1.85;1.17;;;19.40;74.90;;;;;;5111517;28;20028;-73
2022/09/26 04:41:28;;;;;;;2.10;1.30;;;19.40;74.90;;;;;;5112937;28;20019;-73
2022/09/26 04:43:54;;;;;;;1.73;1.10;;;19.40;74.90;;;;;;5112674;28;20142;-73
2022/09/26 04:46:22;;;;;;;1.63;0.80;;;19.40;74.90;;;;;;5112945;28;20089;-73
2022/09/26 04:48:48;;;;;;;1.25;0.90;;;19.40;74.90;;;;;;5094320;28;20435;-73
2022/09/26 04:51:14;;;;;;;1.20;1.00;;;19.40;74.90;;;;;;5111384;28;20048;-73
2022/09/26 04:53:40;;;;;;;1.13;1.00;;;19.40;74.80;;;;;;5112464;28;20047;-73
2022/09/26 04:56:06;;;;;;;1.65;1.00;;;19.30;74.80;;;;;;5094715;28;20107;-73
2022/09/26 04:58:32;;;;;;;1.50;1.00;;;19.40;74.90;;;;;;5111441;28;20028;-73
2022/09/26 05:01:08;;;;;;;1.52;1.15;;;19.30;74.80;;;;;;5111429;28;20027;-73
2022/09/26 05:03:35;;;;;;;4.35;1.25;;;19.30;74.80;;;;;;5076943;28;20024;-73
2022/09/26 05:06:01;;;;;;;2.00;1.08;;;19.40;75.00;;;;;;5080333;28;20012;-73
2022/09/26 05:08:27;;;;;;;3.70;1.10;;;19.30;74.80;;;;;;5082926;28;20024;-73
2022/09/26 05:10:53;;;;;;;6.10;0.98;;;19.30;74.90;;;;;;5082255;28;20081;-73
2022/09/26 05:13:20;;;;;;;2.97;1.17;;;19.30;74.90;;;;;;5081249;28;20510;-73
2022/09/26 05:15:47;;;;;;;14.35;1.92;;;19.30;74.80;;;;;;5081339;28;20016;-73
2022/09/26 05:18:12;;;;;;;2.17;1.10;;;19.30;74.90;;;;;;5081694;28;20516;-73
2022/09/26 05:20:38;;;;;;;2.95;1.02;;;19.30;74.90;;;;;;5080016;28;20048;-73
2022/09/26 05:23:05;;;;;;;5.18;1.00;;;19.30;74.80;;;;;;5079969;28;20063;-73
2022/09/26 05:28:23;;;;;;;7.43;1.15;;;19.30;74.80;;;;;;5067565;28;20457;-73
2022/09/26 05:30:50;;;;;;;1.05;0.80;;;19.30;74.80;;;;;;5067478;28;20016;-73
2022/09/26 05:33:20;;;;;;;1.83;1.00;;;19.30;74.80;;;;;;5081578;28;20012;-73
2022/09/26 05:35:54;;;;;;;1.58;1.08;;;19.30;75.00;;;;;;5080981;28;20078;-73
2022/09/26 05:38:20;;;;;;;5.40;1.08;;;19.30;74.90;;;;;;5079039;28;20020;-73
2022/09/26 05:40:58;;;;;;;1.52;0.98;;;19.30;75.00;;;;;;5080866;28;20023;-73
2022/09/26 05:43:28;;;;;;;1.55;0.90;;;19.30;75.00;;;;;;5080808;28;20111;-72
2022/09/26 05:45:57;;;;;;;1.15;0.80;;;19.30;75.10;;;;;;5062413;28;20029;-72
2022/09/26 05:48:24;;;;;;;3.13;0.68;;;19.30;73.70;;;;;;5081616;28;20051;-72
2022/09/26 05:50:50;;;;;;;2.47;0.90;;;19.30;73.00;;;;;;5079570;28;20093;-71
2022/09/26 05:53:16;;;;;;;1.48;0.80;;;19.30;73.00;;;;;;5081199;28;20428;-71
2022/09/26 05:55:41;;;;;;;1.52;0.80;;;19.20;72.90;;;;;;5081835;28;20400;-72
2022/09/26 05:58:08;;;;;;;2.15;0.80;;;19.20;72.80;;;;;;5073580;28;20027;-71
2022/09/26 06:00:34;;;;;;;2.88;0.80;;;19.20;72.80;;;;;;5073326;28;20013;-72
2022/09/26 06:03:02;;;;;;;2.05;0.65;;;19.20;72.80;;;;;;5071296;28;20519;-71
2022/09/26 06:05:28;;;;;;;0.88;0.70;;;19.20;72.70;;;;;;5073029;28;20354;-72
2022/09/26 06:07:54;;;;;;;1.10;1.00;;;19.20;72.70;;;;;;5075411;28;20085;-71
2022/09/26 06:10:20;;;;;;;1.65;0.65;;;19.20;72.70;;;;;;5071889;28;20033;-72
2022/09/26 06:12:46;;;;;;;4.70;0.80;;;19.20;72.70;;;;;;5073253;28;20025;-72
2022/09/26 06:15:12;;;;;;;5.28;1.00;;;19.10;72.60;;;;;;5076363;28;20135;-71
2022/09/26 06:17:37;;;;;;;1.35;0.57;;;19.10;72.60;;;;;;5075487;28;20055;-72
2022/09/26 06:20:04;;;;;;;0.82;0.68;;;19.10;72.60;;;;;;5072283;28;20024;-72
2022/09/26 06:22:32;;;;;;;1.17;0.60;;;19.10;72.50;;;;;;5073263;28;20611;-72
2022/09/26 06:24:58;;;;;;;1.92;0.70;;;19.10;72.60;;;;;;5074873;28;20402;-72
2022/09/26 06:27:24;;;;;;;1.08;0.75;;;19.10;72.60;;;;;;5077932;28;20025;-72
2022/09/26 06:29:50;;;;;;;3.30;0.63;;;19.10;72.70;;;;;;5075978;28;20423;-72
2022/09/26 06:32:15;;;;;;;0.88;0.70;;;19.10;72.60;;;;;;5072443;28;20515;-72
2022/09/26 06:34:41;;;;;;;0.93;0.52;;;19.10;72.70;;;;;;5072795;28;20028;-72
2022/09/26 06:37:07;;;;;;;0.98;0.50;;;19.10;72.60;;;;;;5074382;28;20460;-72
2022/09/26 06:39:35;;;;;;;0.65;0.50;;;19.10;72.60;;;;;;5072037;28;20025;-72
2022/09/26 06:42:06;;;;;;;1.60;0.98;;;19.10;72.70;;;;;;5072061;28;20025;-73
2022/09/26 06:44:32;;;;;;;0.80;0.68;;;19.10;72.70;;;;;;5077731;28;20041;-73
2022/09/26 06:46:59;;;;;;;0.77;0.60;;;19.10;72.90;;;;;;5056512;28;20020;-71
2022/09/26 06:49:26;;;;;;;9.68;1.83;;;19.10;72.90;;;;;;5073645;28;20476;-72
2022/09/26 06:51:52;;;;;;;4.93;1.33;;;19.10;72.90;;;;;;5074147;28;20036;-71
2022/09/26 06:54:17;;;;;;;8.55;1.60;;;19.00;72.90;;;;;;5074197;28;20025;-72
2022/09/26 06:56:43;;;;;;;4.22;1.40;;;19.00;72.90;;;;;;5073116;28;20116;-71
2022/09/26 06:59:09;;;;;;;9.93;2.35;;;19.00;72.90;;;;;;5074136;28;20032;-72
2022/09/26 07:01:35;;;;;;;12.90;2.33;;;19.00;73.00;;;;;;5074464;28;20103;-71
2022/09/26 07:04:01;;;;;;;11.35;2.42;;;19.00;73.00;;;;;;5083532;28;20115;-72
2022/09/26 07:06:27;;;;;;;9.18;2.50;;;19.00;73.10;;;;;;5106384;28;20070;-72
2022/09/26 07:08:53;;;;;;;12.55;2.55;;;19.00;73.20;;;;;;5091828;28;20028;-71
2022/09/26 07:11:19;;;;;;;10.55;2.50;;;19.00;73.20;;;;;;5097063;28;20503;-72
2022/09/26 07:13:44;;;;;;;11.88;2.67;;;19.00;73.20;;;;;;5114399;28;20032;-72
2022/09/26 07:16:11;;;;;;;12.98;2.55;;;19.00;73.20;;;;;;5114559;28;20023;-72
2022/09/26 07:18:38;;;;;;;12.55;2.90;;;19.00;73.40;;;;;;5111365;28;20027;-72
2022/09/26 07:21:05;;;;;;;12.15;2.40;;;19.00;73.40;;;;;;5092575;28;20093;-72
2022/09/26 07:23:30;;;;;;;9.27;2.53;;;18.90;73.40;;;;;;5092774;28;20556;-72
2022/09/26 07:25:56;;;;;;;14.20;3.22;;;19.00;73.40;;;;;;5093879;28;20028;-71
2022/09/26 07:28:23;;;;;;;10.52;2.50;;;19.00;73.50;;;;;;5092663;28;20028;-72
2022/09/26 07:30:48;;;;;;;13.38;2.95;;;18.90;73.50;;;;;;5093609;28;20012;-72
2022/09/26 07:33:14;;;;;;;15.77;3.28;;;18.90;73.50;;;;;;5093492;28;20093;-72
2022/09/26 07:35:41;;;;;;;8.70;2.10;;;19.00;73.50;;;;;;5094919;28;20021;-72
2022/09/26 07:38:06;;;;;;;17.30;3.22;;;19.00;73.60;;;;;;5112972;28;20031;-72
2022/09/26 07:40:32;;;;;;;13.18;2.92;;;18.90;73.60;;;;;;5113834;28;20023;-71
2022/09/26 07:43:01;;;;;;;9.00;2.53;;;18.90;73.50;;;;;;5114051;28;20467;-72
2022/09/26 07:51:12;;;;;;;12.82;2.75;;;18.90;73.60;;;;;;5113607;28;20070;-72
2022/09/26 07:53:40;;;;;;;18.00;3.22;;;18.90;73.60;;;;;;5112549;28;20028;-72
2022/09/26 07:56:06;;;;;;;8.05;2.47;;;18.90;73.60;;;;;;5112556;28;20023;-72
2022/09/26 07:58:38;;;;;;;9.75;2.80;;;18.90;73.60;;;;;;5113672;28;20019;-72
2022/09/26 08:01:10;;;;;;;;;;;18.90;73.60;;;;;;5095509;28;20161;-72
2022/09/26 08:03:40;;;;;;;11.75;2.78;;;18.90;73.60;;;;;;5081296;28;19909;-71
2022/09/26 08:06:06;;;;;;;13.73;2.35;;;18.90;74.00;;;;;;5073066;28;20055;-71
2022/09/26 08:08:32;;;;;;;8.57;2.50;;;18.90;73.60;;;;;;5071678;28;20024;-71
2022/09/26 08:10:58;;;;;;;9.50;2.55;;;18.90;73.70;;;;;;5093823;28;20019;-72
2022/09/26 08:13:24;;;;;;;12.25;3.05;;;18.80;73.60;;;;;;5112327;28;20501;-72
2022/09/26 08:15:51;;;;;;;6.88;2.35;;;18.90;73.60;;;;;;5111853;28;20449;-72
2022/09/26 08:18:16;;;;;;;10.75;2.53;;;18.90;73.60;;;;;;5113499;28;20016;-72
2022/09/26 08:20:46;;;;;;;11.45;2.65;;;18.90;73.60;;;;;;5112126;28;20501;-72
2022/09/26 08:23:16;;;;;;;10.27;3.08;;;18.80;73.60;;;;;;5112264;28;20023;-72
2022/09/26 08:25:42;;;;;;;9.25;2.50;;;18.80;73.60;;;;;;5112044;28;20023;-72
2022/09/26 08:28:11;;;;;;;7.95;2.40;;;18.80;73.50;;;;;;5111970;28;20028;-72
2022/09/26 08:30:38;;;;;;;8.02;2.67;;;18.80;73.80;;;;;;5095430;28;20019;-72
2022/09/26 08:33:04;;;;;;;7.00;2.97;;;18.80;73.60;;;;;;5111887;28;20106;-72
2022/09/26 08:35:32;;;;;;;5.53;2.60;;;18.80;73.60;;;;;;5111859;28;20110;-72
2022/09/26 08:38:02;;;;;;;8.02;2.67;;;18.80;73.60;;;;;;5112883;28;20034;-72
2022/09/26 08:40:44;;;;;;;7.65;2.42;;;18.80;73.60;;;;;;5112999;28;20016;-72
2022/09/26 08:43:19;;;;;;;6.78;2.40;;;18.80;73.60;;;;;;5096985;28;20028;-72
2022/09/26 08:48:52;;;;;;;9.98;2.72;;;18.80;73.70;;;;;;5098013;28;20024;-72
2022/09/26 08:51:28;;;;;;;8.88;2.97;;;18.80;73.60;;;;;;5112788;28;20511;-72
2022/09/26 08:54:14;;;;;;;8.82;2.03;;;18.80;73.60;;;;;;5111534;28;20039;-72
2022/09/26 08:56:42;;;;;;;11.90;2.92;;;18.80;73.60;;;;;;5112745;28;20023;-72
2022/09/26 08:59:13;;;;;;;7.88;2.33;;;18.80;73.70;;;;;;5077718;28;20433;-72
2022/09/26 09:01:39;;;;;;;6.75;2.22;;;18.80;73.70;;;;;;5111250;28;20059;-71
2022/09/26 09:04:30;;;;;;;6.05;2.38;;;18.80;73.70;;;;;;5070921;28;20111;-72
2022/09/26 09:07:01;;;;;;;4.00;1.83;;;18.80;73.70;;;;;;5072101;28;20028;-72
2022/09/26 09:09:26;;;;;;;9.57;1.98;;;18.80;73.70;;;;;;5071032;28;20017;-72
2022/09/26 09:12:06;;;;;;;5.63;2.08;;;18.80;73.80;;;;;;5109225;28;20441;-72
2022/09/26 09:14:52;;;;;;;8.35;2.35;;;18.70;73.70;;;;;;5111221;28;20022;-72
2022/09/26 09:17:26;;;;;;;6.53;1.90;;;18.70;73.70;;;;;;5112548;28;20062;-72
2022/09/26 09:19:55;;;;;;;6.63;2.33;;;18.70;73.70;;;;;;5111402;28;20399;-72
2022/09/26 09:22:43;;;;;;;4.90;2.08;;;18.70;73.70;;;;;;5112562;28;20027;-72
2022/09/26 09:25:35;;;;;;;8.00;2.15;;;18.70;73.70;;;;;;5111231;28;20050;-72
2022/09/26 09:28:20;;;;;;;5.75;1.88;;;18.70;73.70;;;;;;5080664;28;20506;-72
2022/09/26 09:31:02;;;;;;;5.32;1.83;;;18.70;73.70;;;;;;5112299;28;20023;-72
2022/09/26 09:33:30;;;;;;;;;;;18.70;73.90;;;;;;5096085;28;20063;-72
2022/09/26 09:36:02;;;;;;;5.65;2.08;;;18.70;74.00;;;;;;5114514;28;20006;-72
2022/09/26 09:38:29;;;;;;;7.00;2.08;;;18.70;75.00;;;;;;5098413;28;20012;-72
2022/09/26 09:41:23;;;;;;;5.30;1.90;;;18.70;74.10;;;;;;5098117;28;20027;-72
2022/09/26 09:43:58;;;;;;;6.88;2.00;;;18.70;74.00;;;;;;5115138;28;20030;-72
2022/09/26 09:46:31;;;;;;;8.38;2.55;;;18.70;74.10;;;;;;5115165;28;20024;-71
2022/09/26 09:49:08;;;;;;;6.65;2.30;;;18.70;74.30;;;;;;5098438;28;20019;-72
2022/09/26 09:51:42;;;;;;;4.80;1.77;;;18.60;74.30;;;;;;5115295;28;20491;-72
2022/09/26 09:54:26;;;;;;;9.55;1.83;;;18.60;74.30;;;;;;5115975;28;20015;-72
2022/09/26 09:57:07;;;;;;;5.75;1.75;;;18.60;74.30;;;;;;5115939;28;20024;-72
2022/09/26 10:00:07;;;;;;;9.43;2.17;;;18.60;74.20;;;;;;5116238;27;20023;-72
2022/09/26 10:02:42;;;;;;;5.53;2.17;;;18.60;74.20;;;;;;5101147;28;20060;-71
2022/09/26 10:05:23;;;;;;;3.83;1.67;;;18.60;74.20;;;;;;5075165;28;20096;-72
2022/09/26 10:07:56;;;;;;;7.18;1.92;;;18.60;74.20;;;;;;5073993;28;20025;-72
2022/09/26 10:10:26;;;;;;;10.30;2.45;;;18.60;74.30;;;;;;5085834;28;20020;-72
2022/09/26 10:12:52;;;;;;;5.45;2.28;;;18.60;74.30;;;;;;5097931;28;20467;-72
2022/09/26 10:15:25;;;;;;;4.80;1.98;;;18.60;74.10;;;;;;5114518;28;20035;-72
2022/09/26 10:18:04;;;;;;;4.70;1.67;;;18.60;74.20;;;;;;5114452;28;20054;-72
2022/09/26 10:20:36;;;;;;;7.68;1.75;;;18.60;74.10;;;;;;5114507;28;20023;-72
2022/09/26 10:23:07;;;;;;;4.88;1.42;;;18.60;74.00;;;;;;5114114;28;20031;-72
2022/09/26 10:25:33;;;;;;;5.20;1.60;;;18.60;74.00;;;;;;5114320;28;20016;-72
2022/09/26 10:27:59;;;;;;;5.32;2.22;;;18.70;74.10;;;;;;5097211;28;20445;-71
2022/09/26 10:30:31;;;;;;;7.65;1.80;;;18.60;74.00;;;;;;5114157;28;20016;-72
2022/09/26 10:32:58;;;;;;;2.72;1.25;;;18.60;74.00;;;;;;5114197;28;20529;-72
2022/09/26 10:35:44;;;;;;;5.78;1.52;;;18.60;74.00;;;;;;5114172;28;20368;-71
2022/09/26 10:38:21;;;;;;;5.72;1.80;;;18.60;73.90;;;;;;5115076;28;20042;-71
2022/09/26 10:40:53;;;;;;;4.00;1.30;;;18.60;74.00;;;;;;5113721;28;20031;-72
2022/09/26 10:43:23;;;;;;;;;;;18.60;73.90;;;;;;5114331;28;20144;-72
2022/09/26 10:46:10;;;;;;;5.40;1.70;;;18.60;73.80;;;;;;5114289;27;19910;-72
2022/09/26 10:48:47;;;;;;;5.55;1.73;;;18.60;73.90;;;;;;5113592;28;20047;-71
2022/09/26 10:51:17;;;;;;;5.38;2.03;;;18.60;73.90;;;;;;5114692;28;20043;-72
2022/09/26 10:53:43;;;;;;;6.57;1.90;;;18.60;73.90;;;;;;5115009;28;20056;-72
2022/09/26 10:56:10;;;;;;;3.70;1.73;;;18.60;73.90;;;;;;5096398;28;20047;-72
2022/09/26 10:58:41;;;;;;;5.55;2.00;;;18.60;74.00;;;;;;5096770;28;20020;-72
2022/09/26 11:01:07;;;;;;;6.07;1.80;;;18.60;73.90;;;;;;5113399;28;20062;-71
2022/09/26 11:03:43;;;;;;;5.57;1.55;;;18.60;73.90;;;;;;5065583;28;20118;-71
2022/09/26 11:06:32;;;;;;;6.30;1.63;;;18.60;74.00;;;;;;5072876;28;20028;-72
2022/09/26 11:09:01;;;;;;;4.05;1.73;;;18.60;73.90;;;;;;5072631;28;20111;-72
2022/09/26 11:11:32;;;;;;;6.63;1.80;;;18.60;73.90;;;;;;5086604;28;20024;-72
2022/09/26 11:14:04;;;;;;;5.32;1.75;;;18.60;73.90;;;;;;5113344;28;20051;-72
2022/09/26 11:16:47;;;;;;;3.97;1.35;;;18.60;73.90;;;;;;5097067;28;20024;-72
2022/09/26 11:19:38;;;;;;;5.00;2.25;;;18.60;73.90;;;;;;5114495;28;20032;-72
2022/09/26 11:22:10;;;;;;;5.65;1.80;;;18.60;73.90;;;;;;5113083;28;20103;-72
2022/09/26 11:25:05;;;;;;;5.10;1.50;;;18.60;74.00;;;;;;5114059;28;20035;-72
2022/09/26 11:27:54;;;;;;;7.28;1.95;;;18.60;73.90;;;;;;5113361;28;20028;-72
2022/09/26 11:30:20;;;;;;;5.13;1.38;;;18.60;73.90;;;;;;5112673;28;20133;-72
2022/09/26 11:32:56;;;;;;;4.88;1.90;;;18.60;74.00;;;;;;5114356;28;20027;-72
2022/09/26 11:35:32;;;;;;;5.82;1.90;;;18.60;74.00;;;;;;5113066;28;20466;-72
2022/09/26 11:38:15;;;;;;;4.53;1.98;;;18.60;74.00;;;;;;5113838;28;20024;-72
2022/09/26 11:41:10;;;;;;;6.45;1.67;;;18.50;74.00;;;;;;5114127;28;20088;-72
2022/09/26 11:44:03;;;;;;;5.10;1.52;;;18.60;74.00;;;;;;5109924;28;20380;-72
2022/09/26 11:46:35;;;;;;;4.72;1.50;;;18.60;74.00;;;;;;5113980;28;20023;-72
2022/09/26 11:49:24;;;;;;;3.65;1.60;;;18.60;74.00;;;;;;5113910;28;20019;-72
2022/09/26 11:51:59;;;;;;;5.15;1.58;;;18.60;74.00;;;;;;5112722;28;20491;-72
2022/09/26 11:55:02;;;;;;;4.15;1.45;;;18.60;74.10;;;;;;5112643;28;20023;-72
2022/09/26 11:57:36;;;;;;;5.15;1.40;;;18.60;74.00;;;;;;5113563;28;20031;-72
2022/09/26 12:00:07;;;;;;;4.03;1.55;;;18.60;74.10;;;;;;5112571;28;20107;-72
2022/09/26 12:02:57;;;;;;;6.82;1.70;;;18.50;74.10;;;;;;5097469;28;20463;-72
2022/09/26 12:05:43;;;;;;;7.25;1.88;;;18.60;74.20;;;;;;5067310;28;20033;-72
2022/09/26 12:08:21;;;;;;;4.10;1.85;;;18.60;74.10;;;;;;5071506;28;20048;-72
2022/09/26 12:10:55;;;;;;;5.10;1.50;;;18.50;74.10;;;;;;5090767;28;20020;-72
2022/09/26 12:13:46;;;;;;;4.80;1.77;;;18.50;74.10;;;;;;5113570;28;20030;-71
2022/09/26 12:16:41;;;;;;;5.78;1.75;;;18.60;74.20;;;;;;5113332;27;20019;-72
2022/09/26 12:19:12;;;;;;;6.30;1.75;;;18.50;74.10;;;;;;5030470;28;20045;-72
2022/09/26 12:22:27;;;;;;;6.45;1.90;;;18.50;74.20;;;;;;5014059;28;20045;-72
2022/09/26 12:25:29;;;;;;;9.23;1.67;;;18.60;74.10;;;;;;4971951;28;20478;-71
2022/09/26 12:28:25;;;;;;;6.00;1.70;;;18.60;74.10;;;;;;4958308;28;20031;-72
2022/09/26 12:31:10;;;;;;;3.67;1.50;;;18.50;74.10;;;;;;4971534;28;20047;-72
2022/09/26 12:34:03;;;;;;;4.93;1.73;;;18.50;74.10;;;;;;4971807;28;20035;-71
2022/09/26 12:36:46;;;;;;;5.75;1.55;;;18.60;74.00;;;;;;4971403;28;20089;-72
2022/09/26 12:39:20;;;;;;;4.85;1.90;;;18.50;74.00;;;;;;4971621;28;20035;-72
2022/09/26 12:42:24;;;;;;;5.20;2.03;;;18.50;74.10;;;;;;4971483;28;20042;-72
2022/09/26 12:44:52;;;;;;;;;;;18.50;73.90;;;;;;4959004;28;20040;-72
2022/09/26 12:47:42;;;;;;;5.32;1.52;;;18.50;73.90;;;;;;4971433;28;19929;-72
2022/09/26 12:50:34;;;;;;;3.72;1.27;;;18.50;74.00;;;;;;4957584;28;20047;-71
2022/09/26 12:53:09;;;;;;;4.43;1.40;;;18.50;74.10;;;;;;4957630;28;20035;-72
2022/09/26 12:55:52;;;;;;;7.22;1.40;;;18.50;74.10;;;;;;5005804;28;20470;-72
2022/09/26 12:58:42;;;;;;;5.13;1.58;;;18.50;74.10;;;;;;5085135;28;20100;-72
2022/09/26 13:01:29;;;;;;;7.40;1.85;;;18.50;74.00;;;;;;5111503;28;20037;-71
2022/09/26 13:04:32;;;;;;;7.65;1.98;;;18.50;73.90;;;;;;5074960;28;20028;-72
2022/09/26 13:07:13;;;;;;;4.85;1.58;;;18.50;73.90;;;;;;5072214;28;20032;-72
2022/09/26 13:10:12;;;;;;;8.18;2.22;;;18.50;74.00;;;;;;5075106;28;20065;-72
2022/09/26 13:13:09;;;;;;;5.32;1.73;;;18.50;74.00;;;;;;5078860;28;20514;-72
2022/09/26 13:15:57;;;;;;;7.03;1.90;;;18.50;73.90;;;;;;5063935;28;20128;-72
2022/09/26 13:18:29;;;;;;;4.40;1.67;;;18.50;73.80;;;;;;5078483;28;20050;-72
2022/09/26 13:20:57;;;;;;;5.07;1.60;;;18.50;73.90;;;;;;5060992;28;20474;-71
2022/09/26 13:23:52;;;;;;;6.18;1.95;;;18.50;73.90;;;;;;5077443;28;20042;-72
2022/09/26 13:26:32;;;;;;;5.00;1.38;;;18.50;73.90;;;;;;5091630;28;20051;-72